sensor_id;sensor_type;location;lat;lon;timestamp;P1;durP1;ratioP1;P2;durP2;ratioP2
11307;SDS011;5709;49.484;11.102;2022-09-13T00:00:15;1.10;;;1.00;;
11307;SDS011;5709;49.484;11.102;2022-09-13T00:02:41;0.80;;;0.80;;
11307;SDS011;5709;49.484;11.102;2022-09-13T00:05:06;0.70;;;0.70;;
11307;SDS011;5709;49.484;11.102;2022-09-13T00:07:32;1.00;;;1.00;;
11307;SDS011;5709;49.484;11.102;2022-09-13T00:09:57;0.60;;;0.60;;
11307;SDS011;5709;49.484;11.102;2022-09-13T00:12:22;0.70;;;0.70;;
11307;SDS011;5709;49.484;11.102;2022-09-13T00:14:47;6.18;;;1.73;;
11307;SDS011;5709;49.484;11.102;2022-09-13T00:17:13;0.75;;;0.75;;
11307;SDS011;5709;49.484;11.102;2022-09-13T00:19:38;0.90;;;0.90;;
11307;SDS011;5709;49.484;11.102;2022-09-13T00:22:03;0.60;;;0.60;;
11307;SDS011;5709;49.484;11.102;2022-09-13T00:24:30;0.65;;;0.65;;
11307;SDS011;5709;49.484;11.102;2022-09-13T00:26:56;1.05;;;1.00;;
11307;SDS011;5709;49.484;11.102;2022-09-13T00:29:21;0.70;;;0.70;;
11307;SDS011;5709;49.484;11.102;2022-09-13T00:31:46;0.75;;;0.75;;
11307;SDS011;5709;49.484;11.102;2022-09-13T00:34:12;0.70;;;0.70;;
11307;SDS011;5709;49.484;11.102;2022-09-13T00:36:37;0.90;;;0.90;;
11307;SDS011;5709;49.484;11.102;2022-09-13T00:39:02;0.70;;;0.70;;
11307;SDS011;5709;49.484;11.102;2022-09-13T00:41:28;1.08;;;1.08;;
11307;SDS011;5709;49.484;11.102;2022-09-13T00:43:55;0.80;;;0.80;;
11307;SDS011;5709;49.484;11.102;2022-09-13T00:48:49;0.70;;;0.70;;
11307;SDS011;5709;49.484;11.102;2022-09-13T00:51:17;0.88;;;0.88;;
11307;SDS011;5709;49.484;11.102;2022-09-13T00:53:44;1.92;;;1.05;;
11307;SDS011;5709;49.484;11.102;2022-09-13T00:56:13;0.70;;;0.70;;
11307;SDS011;5709;49.484;11.102;2022-09-13T00:58:49;1.50;;;1.15;;
11307;SDS011;5709;49.484;11.102;2022-09-13T01:01:17;0.90;;;0.90;;
11307;SDS011;5709;49.484;11.102;2022-09-13T01:03:45;0.65;;;0.65;;
11307;SDS011;5709;49.484;11.102;2022-09-13T01:06:12;0.70;;;0.70;;
11307;SDS011;5709;49.484;11.102;2022-09-13T01:08:41;1.23;;;1.23;;
11307;SDS011;5709;49.484;11.102;2022-09-13T01:11:09;1.52;;;1.52;;
11307;SDS011;5709;49.484;11.102;2022-09-13T01:13:36;0.85;;;0.85;;
11307;SDS011;5709;49.484;11.102;2022-09-13T01:16:02;1.35;;;1.35;;
11307;SDS011;5709;49.484;11.102;2022-09-13T01:18:28;1.13;;;1.13;;
11307;SDS011;5709;49.484;11.102;2022-09-13T01:21:00;0.73;;;0.73;;
11307;SDS011;5709;49.484;11.102;2022-09-13T01:27:04;0.70;;;0.70;;
11307;SDS011;5709;49.484;11.102;2022-09-13T01:32:23;0.60;;;0.60;;
11307;SDS011;5709;49.484;11.102;2022-09-13T01:34:58;1.27;;;1.17;;
11307;SDS011;5709;49.484;11.102;2022-09-13T01:37:33;0.60;;;0.60;;
11307;SDS011;5709;49.484;11.102;2022-09-13T01:40:11;0.60;;;0.60;;
11307;SDS011;5709;49.484;11.102;2022-09-13T01:50:36;0.75;;;0.75;;
11307;SDS011;5709;49.484;11.102;2022-09-13T01:53:19;0.98;;;0.98;;
11307;SDS011;5709;49.484;11.102;2022-09-13T01:55:47;0.60;;;0.60;;
11307;SDS011;5709;49.484;11.102;2022-09-13T02:00:45;2.55;;;2.38;;
11307;SDS011;5709;49.484;11.102;2022-09-13T02:03:20;0.82;;;0.82;;
11307;SDS011;5709;49.484;11.102;2022-09-13T02:05:56;0.80;;;0.80;;
11307;SDS011;5709;49.484;11.102;2022-09-13T02:08:35;0.50;;;0.50;;
11307;SDS011;5709;49.484;11.102;2022-09-13T02:11:07;0.85;;;0.85;;
11307;SDS011;5709;49.484;11.102;2022-09-13T02:13:35;0.80;;;0.80;;
11307;SDS011;5709;49.484;11.102;2022-09-13T02:16:06;0.85;;;0.85;;
11307;SDS011;5709;49.484;11.102;2022-09-13T02:18:36;1.92;;;0.93;;
11307;SDS011;5709;49.484;11.102;2022-09-13T02:21:47;1.00;;;1.00;;
11307;SDS011;5709;49.484;11.102;2022-09-13T02:23:56;0.77;;;0.77;;
11307;SDS011;5709;49.484;11.102;2022-09-13T02:26:26;0.70;;;0.70;;
11307;SDS011;5709;49.484;11.102;2022-09-13T02:28:53;0.68;;;0.68;;
11307;SDS011;5709;49.484;11.102;2022-09-13T02:31:22;0.93;;;0.93;;
11307;SDS011;5709;49.484;11.102;2022-09-13T02:33:51;0.82;;;0.82;;
11307;SDS011;5709;49.484;11.102;2022-09-13T02:36:22;0.80;;;0.80;;
11307;SDS011;5709;49.484;11.102;2022-09-13T02:38:55;0.80;;;0.80;;
11307;SDS011;5709;49.484;11.102;2022-09-13T02:41:27;0.70;;;0.70;;
11307;SDS011;5709;49.484;11.102;2022-09-13T02:44:04;0.60;;;0.60;;
11307;SDS011;5709;49.484;11.102;2022-09-13T02:49:33;0.85;;;0.85;;
11307;SDS011;5709;49.484;11.102;2022-09-13T03:00:17;0.70;;;0.70;;
11307;SDS011;5709;49.484;11.102;2022-09-13T03:02:43;0.85;;;0.77;;
11307;SDS011;5709;49.484;11.102;2022-09-13T03:05:10;0.70;;;0.70;;
11307;SDS011;5709;49.484;11.102;2022-09-13T03:07:35;0.60;;;0.60;;
11307;SDS011;5709;49.484;11.102;2022-09-13T03:10:02;0.85;;;0.85;;
11307;SDS011;5709;49.484;11.102;2022-09-13T03:13:35;0.75;;;0.75;;
11307;SDS011;5709;49.484;11.102;2022-09-13T03:16:03;0.88;;;0.88;;
11307;SDS011;5709;49.484;11.102;2022-09-13T03:26:51;0.80;;;0.80;;
11307;SDS011;5709;49.484;11.102;2022-09-13T03:45:15;0.70;;;0.70;;
11307;SDS011;5709;49.484;11.102;2022-09-13T03:47:41;0.90;;;0.90;;
11307;SDS011;5709;49.484;11.102;2022-09-13T03:50:08;0.70;;;0.70;;
11307;SDS011;5709;49.484;11.102;2022-09-13T03:52:34;1.50;;;1.45;;
11307;SDS011;5709;49.484;11.102;2022-09-13T03:55:00;0.80;;;0.80;;
11307;SDS011;5709;49.484;11.102;2022-09-13T03:57:25;0.70;;;0.70;;
11307;SDS011;5709;49.484;11.102;2022-09-13T03:59:52;1.65;;;1.55;;
11307;SDS011;5709;49.484;11.102;2022-09-13T04:02:18;0.70;;;0.70;;
11307;SDS011;5709;49.484;11.102;2022-09-13T04:04:44;0.70;;;0.70;;
11307;SDS011;5709;49.484;11.102;2022-09-13T04:07:12;0.80;;;0.80;;
11307;SDS011;5709;49.484;11.102;2022-09-13T04:09:38;0.98;;;0.98;;
11307;SDS011;5709;49.484;11.102;2022-09-13T04:12:03;0.88;;;0.88;;
11307;SDS011;5709;49.484;11.102;2022-09-13T04:14:29;0.60;;;0.60;;
11307;SDS011;5709;49.484;11.102;2022-09-13T04:16:55;1.15;;;1.13;;
11307;SDS011;5709;49.484;11.102;2022-09-13T04:19:21;1.00;;;1.00;;
11307;SDS011;5709;49.484;11.102;2022-09-13T04:21:48;1.70;;;1.60;;
11307;SDS011;5709;49.484;11.102;2022-09-13T04:24:14;0.70;;;0.70;;
11307;SDS011;5709;49.484;11.102;2022-09-13T04:26:40;1.05;;;1.05;;
11307;SDS011;5709;49.484;11.102;2022-09-13T04:29:05;0.80;;;0.80;;
11307;SDS011;5709;49.484;11.102;2022-09-13T04:31:30;1.13;;;1.13;;
11307;SDS011;5709;49.484;11.102;2022-09-13T04:33:56;1.88;;;1.77;;
11307;SDS011;5709;49.484;11.102;2022-09-13T04:36:22;0.70;;;0.70;;
11307;SDS011;5709;49.484;11.102;2022-09-13T04:38:47;1.00;;;1.00;;
11307;SDS011;5709;49.484;11.102;2022-09-13T04:41:13;0.60;;;0.60;;
11307;SDS011;5709;49.484;11.102;2022-09-13T04:43:39;0.68;;;0.68;;
11307;SDS011;5709;49.484;11.102;2022-09-13T04:46:05;0.70;;;0.70;;
11307;SDS011;5709;49.484;11.102;2022-09-13T04:48:30;1.00;;;1.00;;
11307;SDS011;5709;49.484;11.102;2022-09-13T04:51:02;0.90;;;0.90;;
11307;SDS011;5709;49.484;11.102;2022-09-13T04:53:31;0.70;;;0.70;;
11307;SDS011;5709;49.484;11.102;2022-09-13T04:56:00;0.68;;;0.68;;
11307;SDS011;5709;49.484;11.102;2022-09-13T04:58:26;0.70;;;0.70;;
11307;SDS011;5709;49.484;11.102;2022-09-13T05:00:51;0.82;;;0.82;;
11307;SDS011;5709;49.484;11.102;2022-09-13T05:03:20;0.70;;;0.70;;
11307;SDS011;5709;49.484;11.102;2022-09-13T05:05:46;0.77;;;0.77;;
11307;SDS011;5709;49.484;11.102;2022-09-13T05:08:11;0.90;;;0.90;;
11307;SDS011;5709;49.484;11.102;2022-09-13T05:10:36;0.70;;;0.70;;
11307;SDS011;5709;49.484;11.102;2022-09-13T05:13:02;0.70;;;0.70;;
11307;SDS011;5709;49.484;11.102;2022-09-13T05:15:27;0.85;;;0.85;;
11307;SDS011;5709;49.484;11.102;2022-09-13T05:17:53;0.60;;;0.60;;
11307;SDS011;5709;49.484;11.102;2022-09-13T05:20:18;0.80;;;0.80;;
11307;SDS011;5709;49.484;11.102;2022-09-13T05:22:43;0.70;;;0.70;;
11307;SDS011;5709;49.484;11.102;2022-09-13T05:25:09;0.90;;;0.90;;
11307;SDS011;5709;49.484;11.102;2022-09-13T05:27:34;1.17;;;1.17;;
11307;SDS011;5709;49.484;11.102;2022-09-13T05:29:59;1.48;;;1.38;;
11307;SDS011;5709;49.484;11.102;2022-09-13T05:32:25;1.17;;;1.15;;
11307;SDS011;5709;49.484;11.102;2022-09-13T05:34:50;1.23;;;1.23;;
11307;SDS011;5709;49.484;11.102;2022-09-13T05:37:15;1.95;;;1.50;;
11307;SDS011;5709;49.484;11.102;2022-09-13T05:39:40;0.70;;;0.70;;
11307;SDS011;5709;49.484;11.102;2022-09-13T05:42:06;1.40;;;1.30;;
11307;SDS011;5709;49.484;11.102;2022-09-13T05:44:31;0.82;;;0.82;;
11307;SDS011;5709;49.484;11.102;2022-09-13T05:46:56;0.70;;;0.70;;
11307;SDS011;5709;49.484;11.102;2022-09-13T05:49:22;0.60;;;0.60;;
11307;SDS011;5709;49.484;11.102;2022-09-13T05:51:47;0.70;;;0.70;;
11307;SDS011;5709;49.484;11.102;2022-09-13T05:54:13;0.85;;;0.85;;
11307;SDS011;5709;49.484;11.102;2022-09-13T05:56:38;0.70;;;0.70;;
11307;SDS011;5709;49.484;11.102;2022-09-13T05:59:04;1.17;;;1.17;;
11307;SDS011;5709;49.484;11.102;2022-09-13T06:01:29;0.85;;;0.85;;
11307;SDS011;5709;49.484;11.102;2022-09-13T06:03:55;0.90;;;0.90;;
11307;SDS011;5709;49.484;11.102;2022-09-13T06:06:22;0.85;;;0.85;;
11307;SDS011;5709;49.484;11.102;2022-09-13T06:08:51;1.38;;;1.38;;
11307;SDS011;5709;49.484;11.102;2022-09-13T06:11:18;1.17;;;1.17;;
11307;SDS011;5709;49.484;11.102;2022-09-13T06:13:44;0.60;;;0.60;;
11307;SDS011;5709;49.484;11.102;2022-09-13T06:16:10;0.70;;;0.70;;
11307;SDS011;5709;49.484;11.102;2022-09-13T06:18:36;1.88;;;1.77;;
11307;SDS011;5709;49.484;11.102;2022-09-13T06:21:03;0.70;;;0.70;;
11307;SDS011;5709;49.484;11.102;2022-09-13T06:23:33;0.80;;;0.80;;
11307;SDS011;5709;49.484;11.102;2022-09-13T06:28:26;1.08;;;1.00;;
11307;SDS011;5709;49.484;11.102;2022-09-13T06:30:51;1.10;;;1.10;;
11307;SDS011;5709;49.484;11.102;2022-09-13T06:33:17;1.10;;;1.10;;
11307;SDS011;5709;49.484;11.102;2022-09-13T06:35:42;1.02;;;1.02;;
11307;SDS011;5709;49.484;11.102;2022-09-13T06:38:07;0.70;;;0.70;;
11307;SDS011;5709;49.484;11.102;2022-09-13T06:40:33;0.77;;;0.77;;
11307;SDS011;5709;49.484;11.102;2022-09-13T06:42:58;0.70;;;0.70;;
11307;SDS011;5709;49.484;11.102;2022-09-13T06:45:23;1.58;;;1.50;;
11307;SDS011;5709;49.484;11.102;2022-09-13T06:47:49;0.73;;;0.73;;
11307;SDS011;5709;49.484;11.102;2022-09-13T06:50:19;0.73;;;0.73;;
11307;SDS011;5709;49.484;11.102;2022-09-13T06:52:44;0.82;;;0.82;;
11307;SDS011;5709;49.484;11.102;2022-09-13T06:55:09;1.08;;;1.08;;
11307;SDS011;5709;49.484;11.102;2022-09-13T06:57:34;0.60;;;0.60;;
11307;SDS011;5709;49.484;11.102;2022-09-13T07:00:00;0.65;;;0.65;;
11307;SDS011;5709;49.484;11.102;2022-09-13T07:02:25;0.70;;;0.70;;
11307;SDS011;5709;49.484;11.102;2022-09-13T07:04:51;2.45;;;1.67;;
11307;SDS011;5709;49.484;11.102;2022-09-13T07:07:16;0.73;;;0.73;;
11307;SDS011;5709;49.484;11.102;2022-09-13T07:09:42;0.95;;;0.95;;
11307;SDS011;5709;49.484;11.102;2022-09-13T07:12:08;0.60;;;0.60;;
11307;SDS011;5709;49.484;11.102;2022-09-13T07:14:33;1.35;;;1.35;;
11307;SDS011;5709;49.484;11.102;2022-09-13T07:16:58;1.75;;;1.65;;
11307;SDS011;5709;49.484;11.102;2022-09-13T07:19:25;2.30;;;1.83;;
11307;SDS011;5709;49.484;11.102;2022-09-13T07:21:51;0.80;;;0.80;;
11307;SDS011;5709;49.484;11.102;2022-09-13T07:24:17;0.80;;;0.80;;
11307;SDS011;5709;49.484;11.102;2022-09-13T07:26:43;0.60;;;0.60;;
11307;SDS011;5709;49.484;11.102;2022-09-13T07:29:10;0.70;;;0.70;;
11307;SDS011;5709;49.484;11.102;2022-09-13T07:31:39;0.95;;;0.95;;
11307;SDS011;5709;49.484;11.102;2022-09-13T07:34:05;0.70;;;0.70;;
11307;SDS011;5709;49.484;11.102;2022-09-13T07:36:33;1.65;;;1.63;;
11307;SDS011;5709;49.484;11.102;2022-09-13T07:39:00;1.13;;;1.13;;
11307;SDS011;5709;49.484;11.102;2022-09-13T07:41:26;0.60;;;0.60;;
11307;SDS011;5709;49.484;11.102;2022-09-13T07:43:52;0.70;;;0.70;;
11307;SDS011;5709;49.484;11.102;2022-09-13T07:46:18;1.25;;;1.25;;
11307;SDS011;5709;49.484;11.102;2022-09-13T07:48:45;0.88;;;0.88;;
11307;SDS011;5709;49.484;11.102;2022-09-13T07:53:40;2.60;;;2.08;;
11307;SDS011;5709;49.484;11.102;2022-09-13T07:56:14;1.50;;;1.35;;
11307;SDS011;5709;49.484;11.102;2022-09-13T07:58:44;0.60;;;0.60;;
11307;SDS011;5709;49.484;11.102;2022-09-13T08:03:53;0.63;;;0.63;;
11307;SDS011;5709;49.484;11.102;2022-09-13T08:06:20;0.80;;;0.80;;
11307;SDS011;5709;49.484;11.102;2022-09-13T08:08:46;1.20;;;1.15;;
11307;SDS011;5709;49.484;11.102;2022-09-13T08:11:19;0.70;;;0.70;;
11307;SDS011;5709;49.484;11.102;2022-09-13T08:13:46;1.55;;;1.45;;
11307;SDS011;5709;49.484;11.102;2022-09-13T08:16:12;0.60;;;0.60;;
11307;SDS011;5709;49.484;11.102;2022-09-13T08:18:48;0.70;;;0.70;;
11307;SDS011;5709;49.484;11.102;2022-09-13T08:21:18;0.93;;;0.93;;
11307;SDS011;5709;49.484;11.102;2022-09-13T08:23:44;0.82;;;0.82;;
11307;SDS011;5709;49.484;11.102;2022-09-13T08:26:10;0.90;;;0.90;;
11307;SDS011;5709;49.484;11.102;2022-09-13T08:28:36;0.75;;;0.75;;
11307;SDS011;5709;49.484;11.102;2022-09-13T08:31:03;0.77;;;0.77;;
11307;SDS011;5709;49.484;11.102;2022-09-13T08:33:33;0.68;;;0.68;;
11307;SDS011;5709;49.484;11.102;2022-09-13T08:35:59;0.90;;;0.90;;
11307;SDS011;5709;49.484;11.102;2022-09-13T08:38:24;0.90;;;0.90;;
11307;SDS011;5709;49.484;11.102;2022-09-13T08:40:50;0.60;;;0.60;;
11307;SDS011;5709;49.484;11.102;2022-09-13T08:43:21;0.80;;;0.80;;
11307;SDS011;5709;49.484;11.102;2022-09-13T08:46:13;1.13;;;1.13;;
11307;SDS011;5709;49.484;11.102;2022-09-13T08:48:45;0.88;;;0.88;;
11307;SDS011;5709;49.484;11.102;2022-09-13T08:51:21;0.70;;;0.70;;
11307;SDS011;5709;49.484;11.102;2022-09-13T08:53:51;0.75;;;0.75;;
11307;SDS011;5709;49.484;11.102;2022-09-13T08:56:28;0.65;;;0.65;;
11307;SDS011;5709;49.484;11.102;2022-09-13T09:04:36;1.20;;;1.20;;
11307;SDS011;5709;49.484;11.102;2022-09-13T09:07:10;0.98;;;0.98;;
11307;SDS011;5709;49.484;11.102;2022-09-13T09:09:58;0.70;;;0.70;;
11307;SDS011;5709;49.484;11.102;2022-09-13T09:20:59;0.60;;;0.60;;
11307;SDS011;5709;49.484;11.102;2022-09-13T09:23:12;0.70;;;0.70;;
11307;SDS011;5709;49.484;11.102;2022-09-13T09:25:39;0.73;;;0.73;;
11307;SDS011;5709;49.484;11.102;2022-09-13T09:28:15;0.65;;;0.65;;
11307;SDS011;5709;49.484;11.102;2022-09-13T09:31:29;1.55;;;1.45;;
11307;SDS011;5709;49.484;11.102;2022-09-13T09:33:43;0.80;;;0.80;;
11307;SDS011;5709;49.484;11.102;2022-09-13T09:36:21;1.02;;;1.02;;
11307;SDS011;5709;49.484;11.102;2022-09-13T09:38:50;0.65;;;0.65;;
11307;SDS011;5709;49.484;11.102;2022-09-13T09:43:58;0.63;;;0.63;;
11307;SDS011;5709;49.484;11.102;2022-09-13T09:46:40;0.88;;;0.88;;
11307;SDS011;5709;49.484;11.102;2022-09-13T09:49:15;0.80;;;0.80;;
11307;SDS011;5709;49.484;11.102;2022-09-13T09:52:01;1.00;;;1.00;;
11307;SDS011;5709;49.484;11.102;2022-09-13T09:54:31;0.60;;;0.60;;
11307;SDS011;5709;49.484;11.102;2022-09-13T09:56:57;0.75;;;0.75;;
11307;SDS011;5709;49.484;11.102;2022-09-13T09:59:27;0.98;;;0.90;;
11307;SDS011;5709;49.484;11.102;2022-09-13T10:01:55;0.70;;;0.70;;
11307;SDS011;5709;49.484;11.102;2022-09-13T10:04:22;0.80;;;0.80;;
11307;SDS011;5709;49.484;11.102;2022-09-13T10:06:48;0.65;;;0.65;;
11307;SDS011;5709;49.484;11.102;2022-09-13T10:17:03;0.60;;;0.60;;
11307;SDS011;5709;49.484;11.102;2022-09-13T10:19:29;0.60;;;0.60;;
11307;SDS011;5709;49.484;11.102;2022-09-13T10:21:59;1.48;;;1.38;;
11307;SDS011;5709;49.484;11.102;2022-09-13T10:24:26;0.60;;;0.60;;
11307;SDS011;5709;49.484;11.102;2022-09-13T10:26:53;0.80;;;0.80;;
11307;SDS011;5709;49.484;11.102;2022-09-13T10:29:18;0.75;;;0.75;;
11307;SDS011;5709;49.484;11.102;2022-09-13T10:31:47;0.75;;;0.65;;
11307;SDS011;5709;49.484;11.102;2022-09-13T10:34:19;0.65;;;0.65;;
11307;SDS011;5709;49.484;11.102;2022-09-13T10:36:51;0.68;;;0.68;;
11307;SDS011;5709;49.484;11.102;2022-09-13T10:39:18;0.80;;;0.80;;
11307;SDS011;5709;49.484;11.102;2022-09-13T10:41:49;0.80;;;0.80;;
11307;SDS011;5709;49.484;11.102;2022-09-13T10:47:05;0.70;;;0.70;;
11307;SDS011;5709;49.484;11.102;2022-09-13T10:54:53;0.80;;;0.80;;
11307;SDS011;5709;49.484;11.102;2022-09-13T10:57:32;10.35;;;4.45;;
11307;SDS011;5709;49.484;11.102;2022-09-13T10:59:59;0.70;;;0.70;;
11307;SDS011;5709;49.484;11.102;2022-09-13T11:05:29;1.00;;;1.00;;
11307;SDS011;5709;49.484;11.102;2022-09-13T11:08:05;0.80;;;0.80;;
11307;SDS011;5709;49.484;11.102;2022-09-13T11:14:38;0.80;;;0.80;;
11307;SDS011;5709;49.484;11.102;2022-09-13T11:22:37;0.80;;;0.80;;
11307;SDS011;5709;49.484;11.102;2022-09-13T11:28:01;0.73;;;0.73;;
11307;SDS011;5709;49.484;11.102;2022-09-13T11:30:28;0.60;;;0.60;;
11307;SDS011;5709;49.484;11.102;2022-09-13T11:32:59;1.02;;;1.02;;
11307;SDS011;5709;49.484;11.102;2022-09-13T11:38:26;0.75;;;0.75;;
11307;SDS011;5709;49.484;11.102;2022-09-13T11:41:32;2.42;;;0.82;;
11307;SDS011;5709;49.484;11.102;2022-09-13T11:44:20;0.80;;;0.80;;
11307;SDS011;5709;49.484;11.102;2022-09-13T11:46:59;0.85;;;0.85;;
11307;SDS011;5709;49.484;11.102;2022-09-13T11:55:16;0.60;;;0.60;;
11307;SDS011;5709;49.484;11.102;2022-09-13T11:57:51;2.25;;;2.15;;
11307;SDS011;5709;49.484;11.102;2022-09-13T12:00:25;0.70;;;0.70;;
11307;SDS011;5709;49.484;11.102;2022-09-13T12:05:43;0.60;;;0.60;;
11307;SDS011;5709;49.484;11.102;2022-09-13T12:08:23;1.33;;;1.33;;
11307;SDS011;5709;49.484;11.102;2022-09-13T12:11:03;0.60;;;0.60;;
11307;SDS011;5709;49.484;11.102;2022-09-13T12:13:39;0.80;;;0.80;;
11307;SDS011;5709;49.484;11.102;2022-09-13T12:16:07;0.55;;;0.55;;
11307;SDS011;5709;49.484;11.102;2022-09-13T12:18:47;3.30;;;1.45;;
11307;SDS011;5709;49.484;11.102;2022-09-13T12:21:57;0.60;;;0.60;;
11307;SDS011;5709;49.484;11.102;2022-09-13T12:24:10;0.70;;;0.70;;
11307;SDS011;5709;49.484;11.102;2022-09-13T12:32:13;0.52;;;0.52;;
11307;SDS011;5709;49.484;11.102;2022-09-13T12:39:51;0.60;;;0.60;;
11307;SDS011;5709;49.484;11.102;2022-09-13T12:42:34;0.80;;;0.80;;
11307;SDS011;5709;49.484;11.102;2022-09-13T12:48:01;0.60;;;0.60;;
11307;SDS011;5709;49.484;11.102;2022-09-13T12:55:56;0.60;;;0.60;;
11307;SDS011;5709;49.484;11.102;2022-09-13T13:01:15;0.75;;;0.75;;
11307;SDS011;5709;49.484;11.102;2022-09-13T13:06:27;0.70;;;0.70;;
11307;SDS011;5709;49.484;11.102;2022-09-13T13:08:58;0.70;;;0.70;;
11307;SDS011;5709;49.484;11.102;2022-09-13T13:11:27;1.30;;;1.20;;
11307;SDS011;5709;49.484;11.102;2022-09-13T13:14:02;0.80;;;0.80;;
11307;SDS011;5709;49.484;11.102;2022-09-13T13:16:37;1.13;;;1.13;;
11307;SDS011;5709;49.484;11.102;2022-09-13T13:19:49;0.70;;;0.70;;
11307;SDS011;5709;49.484;11.102;2022-09-13T13:21:54;1.15;;;1.08;;
11307;SDS011;5709;49.484;11.102;2022-09-13T13:26:51;0.85;;;0.85;;
11307;SDS011;5709;49.484;11.102;2022-09-13T13:29:22;0.65;;;0.65;;
11307;SDS011;5709;49.484;11.102;2022-09-13T13:34:41;0.95;;;0.95;;
11307;SDS011;5709;49.484;11.102;2022-09-13T13:44:54;0.63;;;0.63;;
11307;SDS011;5709;49.484;11.102;2022-09-13T14:00:14;0.55;;;0.55;;
11307;SDS011;5709;49.484;11.102;2022-09-13T14:05:30;0.60;;;0.60;;
11307;SDS011;5709;49.484;11.102;2022-09-13T14:14:03;0.70;;;0.70;;
11307;SDS011;5709;49.484;11.102;2022-09-13T14:19:54;0.88;;;0.88;;
11307;SDS011;5709;49.484;11.102;2022-09-13T14:22:18;0.70;;;0.70;;
11307;SDS011;5709;49.484;11.102;2022-09-13T14:24:48;0.90;;;0.90;;
11307;SDS011;5709;49.484;11.102;2022-09-13T14:27:22;0.65;;;0.65;;
11307;SDS011;5709;49.484;11.102;2022-09-13T14:29:50;0.60;;;0.60;;
11307;SDS011;5709;49.484;11.102;2022-09-13T14:32:19;0.95;;;0.95;;
11307;SDS011;5709;49.484;11.102;2022-09-13T14:34:59;0.70;;;0.70;;
11307;SDS011;5709;49.484;11.102;2022-09-13T14:37:30;0.60;;;0.60;;
11307;SDS011;5709;49.484;11.102;2022-09-13T14:39:58;0.77;;;0.77;;
11307;SDS011;5709;49.484;11.102;2022-09-13T14:42:40;0.60;;;0.60;;
11307;SDS011;5709;49.484;11.102;2022-09-13T14:45:11;0.90;;;0.90;;
11307;SDS011;5709;49.484;11.102;2022-09-13T14:47:45;0.73;;;0.73;;
11307;SDS011;5709;49.484;11.102;2022-09-13T14:50:15;0.60;;;0.60;;
11307;SDS011;5709;49.484;11.102;2022-09-13T14:52:56;7.78;;;1.27;;
11307;SDS011;5709;49.484;11.102;2022-09-13T14:55:32;1.75;;;1.65;;
11307;SDS011;5709;49.484;11.102;2022-09-13T14:58:03;1.13;;;1.13;;
11307;SDS011;5709;49.484;11.102;2022-09-13T15:00:31;1.02;;;1.02;;
11307;SDS011;5709;49.484;11.102;2022-09-13T15:03:11;0.65;;;0.65;;
11307;SDS011;5709;49.484;11.102;2022-09-13T15:05:37;1.00;;;1.00;;
11307;SDS011;5709;49.484;11.102;2022-09-13T15:10:56;0.68;;;0.68;;
11307;SDS011;5709;49.484;11.102;2022-09-13T15:13:22;0.77;;;0.77;;
11307;SDS011;5709;49.484;11.102;2022-09-13T15:15:47;1.27;;;1.17;;
11307;SDS011;5709;49.484;11.102;2022-09-13T15:20:54;0.77;;;0.77;;
11307;SDS011;5709;49.484;11.102;2022-09-13T15:23:33;0.70;;;0.70;;
11307;SDS011;5709;49.484;11.102;2022-09-13T15:26:03;0.60;;;0.60;;
11307;SDS011;5709;49.484;11.102;2022-09-13T15:31:05;0.60;;;0.60;;
11307;SDS011;5709;49.484;11.102;2022-09-13T15:33:31;0.90;;;0.75;;
11307;SDS011;5709;49.484;11.102;2022-09-13T15:39:02;0.60;;;0.60;;
11307;SDS011;5709;49.484;11.102;2022-09-13T15:41:38;0.82;;;0.82;;
11307;SDS011;5709;49.484;11.102;2022-09-13T15:44:05;0.95;;;0.95;;
11307;SDS011;5709;49.484;11.102;2022-09-13T15:46:45;2.58;;;1.42;;
11307;SDS011;5709;49.484;11.102;2022-09-13T15:49:17;1.13;;;1.13;;
11307;SDS011;5709;49.484;11.102;2022-09-13T15:51:43;0.77;;;0.77;;
11307;SDS011;5709;49.484;11.102;2022-09-13T15:54:10;0.60;;;0.60;;
11307;SDS011;5709;49.484;11.102;2022-09-13T15:56:36;0.75;;;0.75;;
11307;SDS011;5709;49.484;11.102;2022-09-13T15:59:04;0.80;;;0.80;;
11307;SDS011;5709;49.484;11.102;2022-09-13T16:01:29;0.63;;;0.63;;
11307;SDS011;5709;49.484;11.102;2022-09-13T16:03:54;0.77;;;0.77;;
11307;SDS011;5709;49.484;11.102;2022-09-13T16:06:20;2.50;;;2.38;;
11307;SDS011;5709;49.484;11.102;2022-09-13T16:08:45;0.63;;;0.63;;
11307;SDS011;5709;49.484;11.102;2022-09-13T16:11:10;1.10;;;1.10;;
11307;SDS011;5709;49.484;11.102;2022-09-13T16:13:35;0.90;;;0.90;;
11307;SDS011;5709;49.484;11.102;2022-09-13T16:16:01;4.03;;;3.50;;
11307;SDS011;5709;49.484;11.102;2022-09-13T16:18:28;15.38;;;9.60;;
11307;SDS011;5709;49.484;11.102;2022-09-13T16:20:54;17.88;;;16.25;;
11307;SDS011;5709;49.484;11.102;2022-09-13T16:23:19;15.88;;;14.23;;
11307;SDS011;5709;49.484;11.102;2022-09-13T16:25:45;8.75;;;7.97;;
11307;SDS011;5709;49.484;11.102;2022-09-13T16:28:16;2.83;;;2.67;;
11307;SDS011;5709;49.484;11.102;2022-09-13T16:30:42;9.98;;;4.55;;
11307;SDS011;5709;49.484;11.102;2022-09-13T16:33:08;1.38;;;1.38;;
11307;SDS011;5709;49.484;11.102;2022-09-13T16:35:33;1.83;;;1.73;;
11307;SDS011;5709;49.484;11.102;2022-09-13T16:37:58;17.08;;;11.77;;
11307;SDS011;5709;49.484;11.102;2022-09-13T16:40:24;2.85;;;2.65;;
11307;SDS011;5709;49.484;11.102;2022-09-13T16:42:49;0.98;;;0.98;;
11307;SDS011;5709;49.484;11.102;2022-09-13T16:45:14;0.68;;;0.68;;
11307;SDS011;5709;49.484;11.102;2022-09-13T16:47:40;0.80;;;0.80;;
11307;SDS011;5709;49.484;11.102;2022-09-13T16:50:06;0.65;;;0.65;;
11307;SDS011;5709;49.484;11.102;2022-09-13T16:52:33;1.17;;;1.17;;
11307;SDS011;5709;49.484;11.102;2022-09-13T16:54:59;2.05;;;1.55;;
11307;SDS011;5709;49.484;11.102;2022-09-13T16:57:25;0.75;;;0.75;;
11307;SDS011;5709;49.484;11.102;2022-09-13T16:59:51;0.70;;;0.70;;
11307;SDS011;5709;49.484;11.102;2022-09-13T17:02:18;1.10;;;1.10;;
11307;SDS011;5709;49.484;11.102;2022-09-13T17:04:44;0.60;;;0.60;;
11307;SDS011;5709;49.484;11.102;2022-09-13T17:07:09;1.55;;;1.45;;
11307;SDS011;5709;49.484;11.102;2022-09-13T17:09:35;0.98;;;0.98;;
11307;SDS011;5709;49.484;11.102;2022-09-13T17:12:01;0.80;;;0.80;;
11307;SDS011;5709;49.484;11.102;2022-09-13T17:14:27;0.80;;;0.80;;
11307;SDS011;5709;49.484;11.102;2022-09-13T17:16:53;0.65;;;0.65;;
11307;SDS011;5709;49.484;11.102;2022-09-13T17:19:24;1.67;;;1.63;;
11307;SDS011;5709;49.484;11.102;2022-09-13T17:21:51;0.90;;;0.90;;
11307;SDS011;5709;49.484;11.102;2022-09-13T17:24:17;0.93;;;0.93;;
11307;SDS011;5709;49.484;11.102;2022-09-13T17:26:43;0.70;;;0.70;;
11307;SDS011;5709;49.484;11.102;2022-09-13T17:29:10;1.23;;;1.20;;
11307;SDS011;5709;49.484;11.102;2022-09-13T17:31:36;0.70;;;0.70;;
11307;SDS011;5709;49.484;11.102;2022-09-13T17:34:01;0.65;;;0.65;;
11307;SDS011;5709;49.484;11.102;2022-09-13T17:36:27;1.70;;;1.58;;
11307;SDS011;5709;49.484;11.102;2022-09-13T17:38:53;2.40;;;2.20;;
11307;SDS011;5709;49.484;11.102;2022-09-13T17:41:20;0.80;;;0.80;;
11307;SDS011;5709;49.484;11.102;2022-09-13T17:43:45;0.80;;;0.80;;
11307;SDS011;5709;49.484;11.102;2022-09-13T17:46:15;0.70;;;0.70;;
11307;SDS011;5709;49.484;11.102;2022-09-13T17:48:42;1.55;;;1.45;;
11307;SDS011;5709;49.484;11.102;2022-09-13T17:51:09;0.95;;;0.95;;
11307;SDS011;5709;49.484;11.102;2022-09-13T17:53:36;0.93;;;0.93;;
11307;SDS011;5709;49.484;11.102;2022-09-13T17:56:03;1.05;;;1.05;;
11307;SDS011;5709;49.484;11.102;2022-09-13T17:58:28;1.20;;;1.20;;
11307;SDS011;5709;49.484;11.102;2022-09-13T18:01:04;1.38;;;1.30;;
11307;SDS011;5709;49.484;11.102;2022-09-13T18:03:31;1.27;;;1.25;;
11307;SDS011;5709;49.484;11.102;2022-09-13T18:05:57;1.45;;;1.38;;
11307;SDS011;5709;49.484;11.102;2022-09-13T18:08:24;0.70;;;0.70;;
11307;SDS011;5709;49.484;11.102;2022-09-13T18:10:50;0.70;;;0.70;;
11307;SDS011;5709;49.484;11.102;2022-09-13T18:13:15;0.82;;;0.82;;